This is the latest recevied weather packets stored in our database for station/object DL8BNG-13. If no packets are shown the sender has not sent any weather packets the latest 1 day(s).
| Time | Temp. | Humidity | Pressure | Rain* | Wind** | Luminosity | Snow |
|---|---|---|---|---|---|---|---|
| 1777979702 | 23.89° C | 42% | - | 0 mm | 2.24 m/s, 177° | - | - |
| 1777978803 | 23.89° C | 42% | - | 0 mm | 0 m/s | - | - |
| 1777977902 | 22.78° C | 45% | - | 0 mm | 2.24 m/s, 87° | - | - |
| 1777977003 | 22.78° C | 48% | - | 0 mm | 1.34 m/s, 172° | - | - |
| 1777976103 | 21.67° C | 49% | - | 0 mm | 3.58 m/s, 137° | - | - |
| 1777975202 | 22.22° C | 51% | - | 0 mm | 1.34 m/s, 107° | - | - |
| 1777974302 | 22.22° C | 51% | - | 0 mm | 0 m/s | - | - |
| 1777973402 | 21.67° C | 52% | - | 0 mm | 0 m/s | - | - |
| 1777972503 | 21.11° C | 53% | - | 0 mm | 0 m/s | - | - |
| 1777971602 | 20.56° C | 56% | - | 0 mm | 0 m/s | - | - |
| 1777970703 | 20° C | 58% | - | 0 mm | 0 m/s | - | - |
| 1777969802 | 19.44° C | 59% | - | 0 mm | 0 m/s | - | - |
| 1777968902 | 19.44° C | 60% | - | 0 mm | 0 m/s | - | - |
| 1777968002 | 18.89° C | 61% | - | 0 mm | 0 m/s | - | - |
| 1777967103 | 18.33° C | 62% | - | 0 mm | 0 m/s | - | - |
| 1777966203 | 18.33° C | 62% | - | 0 mm | 0 m/s | - | - |
| 1777965302 | 17.22° C | 66% | - | 0 mm | 0 m/s | - | - |
| 1777964402 | 16.11° C | 69% | - | 0 mm | 0 m/s | - | - |
| 1777963502 | 15.56° C | 70% | - | 0 mm | 0 m/s | - | - |
| 1777962601 | 15.56° C | 70% | - | 0 mm | 0 m/s | - | - |
| 1777961702 | 15° C | 75% | - | 0 mm | 0 m/s | - | - |
| 1777960802 | 14.44° C | 77% | - | 0 mm | 0 m/s | - | - |
| 1777959902 | 13.89° C | 78% | - | 0 mm | 0 m/s | - | - |
| 1777959001 | 13.89° C | 79% | - | 0 mm | 0 m/s | - | - |
| 1777958102 | 13.89° C | 80% | - | 0 mm | 0 m/s | - | - |
* Rain since midnight (hover to see other rain measurements)
** Current wind speed in m/s (hover to see current wind gust speed)